sensor_id;sensor_type;location;lat;lon;timestamp;pressure;altitude;pressure_sealevel;temperature;humidity
35551;BME280;21655;46.056;13.616;2023-04-08T00:01:00;100470.13;;;7.01;100.00
35551;BME280;21655;46.056;13.616;2023-04-08T00:03:26;100468.72;;;6.87;100.00
35551;BME280;21655;46.056;13.616;2023-04-08T00:05:51;100468.13;;;6.93;100.00
35551;BME280;21655;46.056;13.616;2023-04-08T00:08:17;100467.81;;;6.96;100.00
35551;BME280;21655;46.056;13.616;2023-04-08T00:10:42;100460.16;;;6.90;100.00
35551;BME280;21655;46.056;13.616;2023-04-08T00:13:08;100467.63;;;6.98;100.00
35551;BME280;21655;46.056;13.616;2023-04-08T00:15:33;100463.78;;;7.08;100.00
35551;BME280;21655;46.056;13.616;2023-04-08T00:17:59;100464.28;;;7.04;100.00
35551;BME280;21655;46.056;13.616;2023-04-08T00:20:24;100468.59;;;7.06;100.00
35551;BME280;21655;46.056;13.616;2023-04-08T00:22:50;100463.25;;;7.05;100.00
35551;BME280;21655;46.056;13.616;2023-04-08T00:25:15;100458.91;;;7.02;100.00
35551;BME280;21655;46.056;13.616;2023-04-08T00:27:41;100456.22;;;6.93;100.00
35551;BME280;21655;46.056;13.616;2023-04-08T00:30:06;100456.84;;;6.87;100.00
35551;BME280;21655;46.056;13.616;2023-04-08T00:32:32;100453.06;;;6.88;100.00
35551;BME280;21655;46.056;13.616;2023-04-08T00:34:57;100453.47;;;6.93;100.00
35551;BME280;21655;46.056;13.616;2023-04-08T00:37:23;100447.63;;;6.96;100.00
35551;BME280;21655;46.056;13.616;2023-04-08T00:39:49;100441.81;;;6.99;100.00
35551;BME280;21655;46.056;13.616;2023-04-08T00:42:16;100444.56;;;6.99;100.00
35551;BME280;21655;46.056;13.616;2023-04-08T00:44:41;100446.09;;;6.93;100.00
35551;BME280;21655;46.056;13.616;2023-04-08T00:47:11;100442.84;;;6.98;100.00
35551;BME280;21655;46.056;13.616;2023-04-08T00:49:36;100450.25;;;6.97;100.00
35551;BME280;21655;46.056;13.616;2023-04-08T00:52:02;100448.34;;;6.98;100.00
35551;BME280;21655;46.056;13.616;2023-04-08T00:54:28;100448.09;;;6.91;100.00
35551;BME280;21655;46.056;13.616;2023-04-08T00:56:55;100447.00;;;6.84;100.00
35551;BME280;21655;46.056;13.616;2023-04-08T00:59:21;100445.75;;;6.96;100.00
35551;BME280;21655;46.056;13.616;2023-04-08T01:02:13;100445.63;;;6.71;100.00
35551;BME280;21655;46.056;13.616;2023-04-08T01:04:48;100451.22;;;6.61;100.00
35551;BME280;21655;46.056;13.616;2023-04-08T01:07:22;100449.75;;;6.57;100.00
35551;BME280;21655;46.056;13.616;2023-04-08T01:10:12;100447.25;;;6.64;100.00
35551;BME280;21655;46.056;13.616;2023-04-08T01:12:43;100442.81;;;6.53;100.00
35551;BME280;21655;46.056;13.616;2023-04-08T01:15:13;100446.88;;;6.59;100.00
35551;BME280;21655;46.056;13.616;2023-04-08T01:17:39;100441.81;;;6.54;100.00
35551;BME280;21655;46.056;13.616;2023-04-08T01:20:06;100438.50;;;6.51;100.00
35551;BME280;21655;46.056;13.616;2023-04-08T01:25:13;100441.22;;;6.60;100.00
35551;BME280;21655;46.056;13.616;2023-04-08T01:27:41;100443.41;;;6.57;100.00
35551;BME280;21655;46.056;13.616;2023-04-08T01:30:08;100439.69;;;6.48;100.00
35551;BME280;21655;46.056;13.616;2023-04-08T01:32:35;100438.03;;;6.55;100.00
35551;BME280;21655;46.056;13.616;2023-04-08T01:35:02;100436.47;;;6.53;100.00
35551;BME280;21655;46.056;13.616;2023-04-08T01:37:28;100443.31;;;6.39;100.00
35551;BME280;21655;46.056;13.616;2023-04-08T01:39:55;100442.03;;;6.43;100.00
35551;BME280;21655;46.056;13.616;2023-04-08T01:42:26;100437.38;;;6.44;100.00
35551;BME280;21655;46.056;13.616;2023-04-08T01:44:55;100444.34;;;6.38;100.00
35551;BME280;21655;46.056;13.616;2023-04-08T01:47:21;100439.78;;;6.29;100.00
35551;BME280;21655;46.056;13.616;2023-04-08T01:49:50;100435.13;;;6.30;100.00
35551;BME280;21655;46.056;13.616;2023-04-08T01:52:17;100436.41;;;6.35;100.00
35551;BME280;21655;46.056;13.616;2023-04-08T01:54:44;100441.06;;;6.35;100.00
35551;BME280;21655;46.056;13.616;2023-04-08T01:57:12;100436.72;;;6.32;100.00
35551;BME280;21655;46.056;13.616;2023-04-08T01:59:39;100438.75;;;6.30;100.00
35551;BME280;21655;46.056;13.616;2023-04-08T02:02:08;100441.84;;;6.18;100.00
35551;BME280;21655;46.056;13.616;2023-04-08T02:04:35;100445.44;;;6.18;100.00
35551;BME280;21655;46.056;13.616;2023-04-08T02:07:01;100437.19;;;6.18;100.00
35551;BME280;21655;46.056;13.616;2023-04-08T02:09:27;100440.13;;;6.07;100.00
35551;BME280;21655;46.056;13.616;2023-04-08T02:11:53;100440.13;;;6.07;100.00
35551;BME280;21655;46.056;13.616;2023-04-08T02:14:18;100439.00;;;6.00;100.00
35551;BME280;21655;46.056;13.616;2023-04-08T02:17:16;100440.91;;;5.90;100.00
35551;BME280;21655;46.056;13.616;2023-04-08T02:20:02;100439.34;;;5.69;100.00
35551;BME280;21655;46.056;13.616;2023-04-08T02:22:56;100445.72;;;5.60;100.00
35551;BME280;21655;46.056;13.616;2023-04-08T02:25:24;100441.53;;;5.65;100.00
35551;BME280;21655;46.056;13.616;2023-04-08T02:27:51;100443.66;;;5.71;100.00
35551;BME280;21655;46.056;13.616;2023-04-08T02:30:19;100442.97;;;5.79;100.00
35551;BME280;21655;46.056;13.616;2023-04-08T02:32:46;100442.81;;;5.71;100.00
35551;BME280;21655;46.056;13.616;2023-04-08T02:35:13;100450.06;;;5.72;100.00
35551;BME280;21655;46.056;13.616;2023-04-08T02:37:40;100451.34;;;5.77;100.00
35551;BME280;21655;46.056;13.616;2023-04-08T02:40:27;100449.47;;;5.87;100.00
35551;BME280;21655;46.056;13.616;2023-04-08T02:42:54;100442.53;;;5.83;100.00
35551;BME280;21655;46.056;13.616;2023-04-08T02:45:20;100442.53;;;5.83;100.00
35551;BME280;21655;46.056;13.616;2023-04-08T02:47:45;100444.09;;;5.76;100.00
35551;BME280;21655;46.056;13.616;2023-04-08T02:50:11;100444.38;;;5.73;100.00
35551;BME280;21655;46.056;13.616;2023-04-08T02:52:37;100447.16;;;5.54;100.00
35551;BME280;21655;46.056;13.616;2023-04-08T02:55:02;100446.31;;;5.54;100.00
35551;BME280;21655;46.056;13.616;2023-04-08T02:57:31;100440.66;;;5.46;100.00
35551;BME280;21655;46.056;13.616;2023-04-08T02:59:56;100449.06;;;5.26;100.00
35551;BME280;21655;46.056;13.616;2023-04-08T03:02:21;100453.53;;;5.08;100.00
35551;BME280;21655;46.056;13.616;2023-04-08T03:04:47;100451.66;;;4.99;100.00
35551;BME280;21655;46.056;13.616;2023-04-08T03:07:13;100446.31;;;5.16;100.00
35551;BME280;21655;46.056;13.616;2023-04-08T03:09:38;100448.75;;;5.10;100.00
35551;BME280;21655;46.056;13.616;2023-04-08T03:12:04;100438.78;;;4.99;100.00
35551;BME280;21655;46.056;13.616;2023-04-08T03:14:29;100446.72;;;4.93;100.00
35551;BME280;21655;46.056;13.616;2023-04-08T03:16:55;100446.16;;;4.89;100.00
35551;BME280;21655;46.056;13.616;2023-04-08T03:19:20;100441.09;;;4.94;100.00
35551;BME280;21655;46.056;13.616;2023-04-08T03:21:46;100455.72;;;5.04;100.00
35551;BME280;21655;46.056;13.616;2023-04-08T03:24:12;100442.25;;;5.01;100.00
35551;BME280;21655;46.056;13.616;2023-04-08T03:26:38;100438.22;;;5.05;100.00
35551;BME280;21655;46.056;13.616;2023-04-08T03:29:03;100439.66;;;5.00;100.00
35551;BME280;21655;46.056;13.616;2023-04-08T03:31:31;100442.13;;;4.93;100.00
35551;BME280;21655;46.056;13.616;2023-04-08T03:33:57;100446.59;;;5.04;100.00
35551;BME280;21655;46.056;13.616;2023-04-08T03:36:22;100446.47;;;5.05;100.00
35551;BME280;21655;46.056;13.616;2023-04-08T03:38:47;100440.97;;;5.05;100.00
35551;BME280;21655;46.056;13.616;2023-04-08T03:41:13;100438.47;;;4.93;100.00
35551;BME280;21655;46.056;13.616;2023-04-08T03:43:38;100446.00;;;5.00;100.00
35551;BME280;21655;46.056;13.616;2023-04-08T03:46:04;100444.75;;;4.95;100.00
35551;BME280;21655;46.056;13.616;2023-04-08T03:48:30;100451.97;;;5.15;100.00
35551;BME280;21655;46.056;13.616;2023-04-08T03:50:56;100450.97;;;5.16;100.00
35551;BME280;21655;46.056;13.616;2023-04-08T03:53:21;100447.03;;;5.09;100.00
35551;BME280;21655;46.056;13.616;2023-04-08T03:55:48;100443.97;;;4.93;100.00
35551;BME280;21655;46.056;13.616;2023-04-08T03:58:15;100449.63;;;4.91;100.00
35551;BME280;21655;46.056;13.616;2023-04-08T04:00:40;100460.75;;;4.90;100.00
35551;BME280;21655;46.056;13.616;2023-04-08T04:03:06;100460.19;;;4.86;100.00
35551;BME280;21655;46.056;13.616;2023-04-08T04:05:31;100460.47;;;4.93;100.00
35551;BME280;21655;46.056;13.616;2023-04-08T04:07:57;100458.03;;;4.99;100.00
35551;BME280;21655;46.056;13.616;2023-04-08T04:10:22;100455.28;;;4.99;100.00
35551;BME280;21655;46.056;13.616;2023-04-08T04:12:49;100461.94;;;4.97;100.00
35551;BME280;21655;46.056;13.616;2023-04-08T04:15:14;100459.44;;;4.94;100.00
35551;BME280;21655;46.056;13.616;2023-04-08T04:17:40;100457.72;;;4.93;100.00
35551;BME280;21655;46.056;13.616;2023-04-08T04:20:05;100461.47;;;4.82;100.00
35551;BME280;21655;46.056;13.616;2023-04-08T04:22:31;100466.22;;;4.80;100.00
35551;BME280;21655;46.056;13.616;2023-04-08T04:24:56;100464.38;;;4.81;100.00
35551;BME280;21655;46.056;13.616;2023-04-08T04:27:22;100464.94;;;4.84;100.00
35551;BME280;21655;46.056;13.616;2023-04-08T04:29:47;100474.03;;;4.75;100.00
35551;BME280;21655;46.056;13.616;2023-04-08T04:32:13;100466.81;;;4.84;100.00
35551;BME280;21655;46.056;13.616;2023-04-08T04:34:38;100467.97;;;4.91;100.00
35551;BME280;21655;46.056;13.616;2023-04-08T04:37:04;100459.59;;;4.73;100.00
35551;BME280;21655;46.056;13.616;2023-04-08T04:39:29;100474.88;;;4.76;100.00
35551;BME280;21655;46.056;13.616;2023-04-08T04:41:55;100469.69;;;4.73;100.00
35551;BME280;21655;46.056;13.616;2023-04-08T04:44:20;100470.97;;;4.59;100.00
35551;BME280;21655;46.056;13.616;2023-04-08T04:46:46;100475.56;;;4.59;100.00
35551;BME280;21655;46.056;13.616;2023-04-08T04:49:11;100478.75;;;4.54;100.00
35551;BME280;21655;46.056;13.616;2023-04-08T04:51:37;100474.72;;;4.58;100.00
35551;BME280;21655;46.056;13.616;2023-04-08T04:54:02;100470.97;;;4.59;100.00
35551;BME280;21655;46.056;13.616;2023-04-08T04:56:28;100462.53;;;4.51;100.00
35551;BME280;21655;46.056;13.616;2023-04-08T04:58:53;100477.88;;;4.54;100.00
35551;BME280;21655;46.056;13.616;2023-04-08T05:01:18;100477.47;;;4.68;100.00
35551;BME280;21655;46.056;13.616;2023-04-08T05:03:44;100480.25;;;4.77;100.00
35551;BME280;21655;46.056;13.616;2023-04-08T05:06:10;100475.66;;;4.87;100.00
35551;BME280;21655;46.056;13.616;2023-04-08T05:08:36;100469.28;;;4.87;100.00
35551;BME280;21655;46.056;13.616;2023-04-08T05:11:01;100467.28;;;4.98;100.00
35551;BME280;21655;46.056;13.616;2023-04-08T05:13:27;100472.94;;;5.06;100.00
35551;BME280;21655;46.056;13.616;2023-04-08T05:15:53;100468.59;;;5.23;100.00
35551;BME280;21655;46.056;13.616;2023-04-08T05:18:18;100478.72;;;5.13;100.00
35551;BME280;21655;46.056;13.616;2023-04-08T05:20:44;100484.66;;;5.08;100.00
35551;BME280;21655;46.056;13.616;2023-04-08T05:23:10;100481.31;;;5.24;100.00
35551;BME280;21655;46.056;13.616;2023-04-08T05:25:36;100480.00;;;5.18;100.00
35551;BME280;21655;46.056;13.616;2023-04-08T05:28:01;100475.53;;;5.17;100.00
35551;BME280;21655;46.056;13.616;2023-04-08T05:30:27;100469.91;;;5.47;100.00
35551;BME280;21655;46.056;13.616;2023-04-08T05:32:53;100472.81;;;5.55;100.00
35551;BME280;21655;46.056;13.616;2023-04-08T05:35:18;100476.56;;;5.63;100.00
35551;BME280;21655;46.056;13.616;2023-04-08T05:37:43;100473.22;;;5.79;100.00
35551;BME280;21655;46.056;13.616;2023-04-08T05:40:09;100483.91;;;5.91;100.00
35551;BME280;21655;46.056;13.616;2023-04-08T05:42:35;100475.78;;;5.99;100.00
35551;BME280;21655;46.056;13.616;2023-04-08T05:45:00;100477.50;;;6.10;100.00
35551;BME280;21655;46.056;13.616;2023-04-08T05:47:26;100483.41;;;6.15;100.00
35551;BME280;21655;46.056;13.616;2023-04-08T05:49:51;100480.38;;;6.08;100.00
35551;BME280;21655;46.056;13.616;2023-04-08T05:52:17;100485.50;;;6.40;100.00
35551;BME280;21655;46.056;13.616;2023-04-08T05:54:43;100476.47;;;7.01;100.00
35551;BME280;21655;46.056;13.616;2023-04-08T05:57:08;100473.81;;;7.27;100.00
35551;BME280;21655;46.056;13.616;2023-04-08T05:59:34;100482.81;;;7.46;100.00
35551;BME280;21655;46.056;13.616;2023-04-08T06:02:00;100482.66;;;7.47;100.00
35551;BME280;21655;46.056;13.616;2023-04-08T06:04:25;100481.00;;;7.54;100.00
35551;BME280;21655;46.056;13.616;2023-04-08T06:06:51;100476.19;;;7.56;100.00
35551;BME280;21655;46.056;13.616;2023-04-08T06:09:16;100478.31;;;7.62;100.00
35551;BME280;21655;46.056;13.616;2023-04-08T06:11:41;100478.91;;;7.74;100.00
35551;BME280;21655;46.056;13.616;2023-04-08T06:14:07;100484.81;;;7.96;100.00
35551;BME280;21655;46.056;13.616;2023-04-08T06:16:32;100483.94;;;7.96;100.00
35551;BME280;21655;46.056;13.616;2023-04-08T06:18:58;100487.41;;;7.98;100.00
35551;BME280;21655;46.056;13.616;2023-04-08T06:21:23;100486.91;;;8.20;100.00
35551;BME280;21655;46.056;13.616;2023-04-08T06:23:49;100485.75;;;8.30;100.00
35551;BME280;21655;46.056;13.616;2023-04-08T06:26:14;100483.44;;;8.18;100.00
35551;BME280;21655;46.056;13.616;2023-04-08T06:28:40;100485.78;;;7.87;100.00
35551;BME280;21655;46.056;13.616;2023-04-08T06:31:06;100480.38;;;8.03;100.00
35551;BME280;21655;46.056;13.616;2023-04-08T06:33:31;100481.91;;;8.49;100.00
35551;BME280;21655;46.056;13.616;2023-04-08T06:36:06;100489.63;;;8.71;100.00
35551;BME280;21655;46.056;13.616;2023-04-08T06:38:32;100482.44;;;8.86;100.00
35551;BME280;21655;46.056;13.616;2023-04-08T06:41:02;100485.19;;;8.78;100.00
35551;BME280;21655;46.056;13.616;2023-04-08T06:43:27;100480.81;;;9.17;100.00
35551;BME280;21655;46.056;13.616;2023-04-08T06:45:53;100476.13;;;9.09;100.00
35551;BME280;21655;46.056;13.616;2023-04-08T06:48:19;100476.38;;;9.31;100.00
35551;BME280;21655;46.056;13.616;2023-04-08T06:50:44;100484.09;;;9.12;100.00
35551;BME280;21655;46.056;13.616;2023-04-08T06:53:10;100481.06;;;9.39;100.00
35551;BME280;21655;46.056;13.616;2023-04-08T06:55:35;100471.19;;;9.36;100.00
35551;BME280;21655;46.056;13.616;2023-04-08T06:58:01;100470.91;;;9.55;100.00
35551;BME280;21655;46.056;13.616;2023-04-08T07:00:26;100467.59;;;9.52;100.00
35551;BME280;21655;46.056;13.616;2023-04-08T07:02:52;100477.31;;;9.88;100.00
35551;BME280;21655;46.056;13.616;2023-04-08T07:05:17;100474.69;;;9.94;100.00
35551;BME280;21655;46.056;13.616;2023-04-08T07:07:43;100468.16;;;10.11;100.00
35551;BME280;21655;46.056;13.616;2023-04-08T07:10:09;100470.56;;;10.22;100.00
35551;BME280;21655;46.056;13.616;2023-04-08T07:12:34;100463.25;;;10.29;100.00
35551;BME280;21655;46.056;13.616;2023-04-08T07:15:00;100471.50;;;10.61;100.00
35551;BME280;21655;46.056;13.616;2023-04-08T07:17:25;100462.75;;;10.88;100.00
35551;BME280;21655;46.056;13.616;2023-04-08T07:19:50;100465.63;;;10.95;100.00
35551;BME280;21655;46.056;13.616;2023-04-08T07:22:16;100470.81;;;11.06;100.00
35551;BME280;21655;46.056;13.616;2023-04-08T07:24:42;100473.78;;;10.96;100.00
35551;BME280;21655;46.056;13.616;2023-04-08T07:27:13;100468.34;;;11.11;100.00
35551;BME280;21655;46.056;13.616;2023-04-08T07:29:39;100468.03;;;11.06;100.00
35551;BME280;21655;46.056;13.616;2023-04-08T07:32:04;100463.59;;;11.19;100.00
35551;BME280;21655;46.056;13.616;2023-04-08T07:34:30;100455.00;;;11.36;100.00
35551;BME280;21655;46.056;13.616;2023-04-08T07:36:55;100462.19;;;11.53;100.00
35551;BME280;21655;46.056;13.616;2023-04-08T07:39:21;100466.44;;;11.72;100.00
35551;BME280;21655;46.056;13.616;2023-04-08T07:41:46;100469.69;;;11.98;99.77
35551;BME280;21655;46.056;13.616;2023-04-08T07:44:11;100467.78;;;11.98;95.88
35551;BME280;21655;46.056;13.616;2023-04-08T07:46:41;100461.13;;;12.22;95.76
35551;BME280;21655;46.056;13.616;2023-04-08T07:49:06;100468.03;;;12.11;90.25
35551;BME280;21655;46.056;13.616;2023-04-08T07:51:32;100457.44;;;12.44;89.40
35551;BME280;21655;46.056;13.616;2023-04-08T07:53:58;100470.66;;;12.42;86.56
35551;BME280;21655;46.056;13.616;2023-04-08T07:56:24;100467.59;;;12.51;85.94
35551;BME280;21655;46.056;13.616;2023-04-08T07:58:49;100478.38;;;12.83;83.07
35551;BME280;21655;46.056;13.616;2023-04-08T08:01:21;100477.94;;;12.94;80.88
35551;BME280;21655;46.056;13.616;2023-04-08T08:03:48;100470.25;;;12.96;79.61
35551;BME280;21655;46.056;13.616;2023-04-08T08:06:14;100473.66;;;13.13;76.53
35551;BME280;21655;46.056;13.616;2023-04-08T08:08:40;100475.63;;;13.47;75.51
35551;BME280;21655;46.056;13.616;2023-04-08T08:11:05;100474.44;;;13.56;71.00
35551;BME280;21655;46.056;13.616;2023-04-08T08:13:32;100479.53;;;13.53;71.79
35551;BME280;21655;46.056;13.616;2023-04-08T08:15:57;100477.47;;;13.40;73.07
35551;BME280;21655;46.056;13.616;2023-04-08T08:18:23;100475.69;;;13.89;73.29
35551;BME280;21655;46.056;13.616;2023-04-08T08:20:48;100473.69;;;14.04;72.98
35551;BME280;21655;46.056;13.616;2023-04-08T08:23:14;100475.00;;;14.08;70.28
35551;BME280;21655;46.056;13.616;2023-04-08T08:25:39;100481.13;;;14.67;69.34
35551;BME280;21655;46.056;13.616;2023-04-08T08:28:05;100480.56;;;15.11;66.05
35551;BME280;21655;46.056;13.616;2023-04-08T08:30:31;100477.25;;;15.02;62.15
35551;BME280;21655;46.056;13.616;2023-04-08T08:32:57;100480.16;;;14.53;61.51
35551;BME280;21655;46.056;13.616;2023-04-08T08:35:24;100477.78;;;14.50;61.97
35551;BME280;21655;46.056;13.616;2023-04-08T08:37:49;100481.63;;;14.77;61.42
35551;BME280;21655;46.056;13.616;2023-04-08T08:40:15;100481.41;;;14.78;60.37
35551;BME280;21655;46.056;13.616;2023-04-08T08:42:42;100483.41;;;14.84;59.71
35551;BME280;21655;46.056;13.616;2023-04-08T08:45:14;100474.50;;;14.74;60.39
35551;BME280;21655;46.056;13.616;2023-04-08T08:47:40;100481.94;;;14.61;61.05
35551;BME280;21655;46.056;13.616;2023-04-08T08:50:05;100475.00;;;14.50;60.74
35551;BME280;21655;46.056;13.616;2023-04-08T08:52:31;100484.25;;;14.30;60.06
35551;BME280;21655;46.056;13.616;2023-04-08T08:54:57;100474.72;;;14.45;61.87
35551;BME280;21655;46.056;13.616;2023-04-08T08:57:23;100477.81;;;14.84;61.88
35551;BME280;21655;46.056;13.616;2023-04-08T08:59:49;100481.69;;;14.83;60.67
35551;BME280;21655;46.056;13.616;2023-04-08T09:02:26;100469.81;;;15.15;59.88
35551;BME280;21655;46.056;13.616;2023-04-08T09:05:00;100474.47;;;15.35;57.42
35551;BME280;21655;46.056;13.616;2023-04-08T09:07:26;100471.81;;;15.68;56.45
35551;BME280;21655;46.056;13.616;2023-04-08T09:09:53;100475.28;;;15.96;55.08
35551;BME280;21655;46.056;13.616;2023-04-08T09:12:19;100474.72;;;16.33;53.76
35551;BME280;21655;46.056;13.616;2023-04-08T09:14:45;100465.97;;;17.31;52.24
35551;BME280;21655;46.056;13.616;2023-04-08T09:17:11;100481.75;;;17.26;51.19
35551;BME280;21655;46.056;13.616;2023-04-08T09:19:36;100480.72;;;17.71;50.68
35551;BME280;21655;46.056;13.616;2023-04-08T09:22:10;100482.91;;;18.00;50.53
35551;BME280;21655;46.056;13.616;2023-04-08T09:24:36;100475.75;;;18.41;46.86
35551;BME280;21655;46.056;13.616;2023-04-08T09:27:03;100473.00;;;18.59;47.44
35551;BME280;21655;46.056;13.616;2023-04-08T09:29:29;100471.34;;;18.52;47.14
35551;BME280;21655;46.056;13.616;2023-04-08T09:31:59;100478.28;;;18.74;46.64
35551;BME280;21655;46.056;13.616;2023-04-08T09:34:25;100486.25;;;18.77;46.80
35551;BME280;21655;46.056;13.616;2023-04-08T09:36:52;100478.56;;;18.66;46.26
35551;BME280;21655;46.056;13.616;2023-04-08T09:39:18;100484.06;;;18.23;45.97
35551;BME280;21655;46.056;13.616;2023-04-08T09:41:47;100485.06;;;18.42;45.73
35551;BME280;21655;46.056;13.616;2023-04-08T09:44:14;100483.34;;;18.41;45.90
35551;BME280;21655;46.056;13.616;2023-04-08T09:54:49;100466.88;;;19.83;43.02
35551;BME280;21655;46.056;13.616;2023-04-08T09:57:24;100469.50;;;20.14;41.70
35551;BME280;21655;46.056;13.616;2023-04-08T10:00:01;100473.34;;;20.31;39.83
35551;BME280;21655;46.056;13.616;2023-04-08T10:02:29;100469.66;;;20.30;36.84
35551;BME280;21655;46.056;13.616;2023-04-08T10:04:59;100464.13;;;19.94;35.50
35551;BME280;21655;46.056;13.616;2023-04-08T10:07:28;100465.13;;;19.34;37.69
35551;BME280;21655;46.056;13.616;2023-04-08T10:09:53;100466.53;;;18.83;32.95
35551;BME280;21655;46.056;13.616;2023-04-08T10:12:19;100463.25;;;18.86;29.76
35551;BME280;21655;46.056;13.616;2023-04-08T10:15:22;100467.53;;;18.71;33.32
35551;BME280;21655;46.056;13.616;2023-04-08T10:17:49;100457.97;;;18.96;32.51
35551;BME280;21655;46.056;13.616;2023-04-08T10:20:50;100466.97;;;18.00;33.94
35551;BME280;21655;46.056;13.616;2023-04-08T10:23:17;100466.75;;;18.57;32.90
35551;BME280;21655;46.056;13.616;2023-04-08T10:25:43;100461.59;;;18.54;33.89
35551;BME280;21655;46.056;13.616;2023-04-08T10:30:43;100463.47;;;18.36;34.66
35551;BME280;21655;46.056;13.616;2023-04-08T10:33:18;100465.72;;;18.52;35.00
35551;BME280;21655;46.056;13.616;2023-04-08T10:35:51;100459.00;;;18.77;33.18
35551;BME280;21655;46.056;13.616;2023-04-08T10:38:18;100458.78;;;18.54;34.22
35551;BME280;21655;46.056;13.616;2023-04-08T10:40:44;100465.91;;;18.57;35.15
35551;BME280;21655;46.056;13.616;2023-04-08T10:43:12;100455.59;;;19.17;34.13
35551;BME280;21655;46.056;13.616;2023-04-08T10:45:39;100452.97;;;18.98;33.44
35551;BME280;21655;46.056;13.616;2023-04-08T10:48:16;100449.69;;;18.59;34.75
35551;BME280;21655;46.056;13.616;2023-04-08T10:50:55;100456.38;;;18.82;36.68
35551;BME280;21655;46.056;13.616;2023-04-08T10:53:35;100449.34;;;18.91;33.49
35551;BME280;21655;46.056;13.616;2023-04-08T10:56:07;100453.88;;;18.92;34.24
35551;BME280;21655;46.056;13.616;2023-04-08T10:58:46;100454.69;;;18.99;34.51
35551;BME280;21655;46.056;13.616;2023-04-08T11:01:12;100445.81;;;19.38;33.08
35551;BME280;21655;46.056;13.616;2023-04-08T11:03:38;100448.69;;;19.67;34.08
35551;BME280;21655;46.056;13.616;2023-04-08T11:06:03;100449.56;;;19.97;34.54
35551;BME280;21655;46.056;13.616;2023-04-08T11:08:30;100443.22;;;19.72;34.49
35551;BME280;21655;46.056;13.616;2023-04-08T11:10:57;100445.81;;;19.38;32.82
35551;BME280;21655;46.056;13.616;2023-04-08T11:13:22;100447.41;;;19.34;33.08
35551;BME280;21655;46.056;13.616;2023-04-08T11:15:49;100439.25;;;19.26;34.55
35551;BME280;21655;46.056;13.616;2023-04-08T11:18:15;100441.94;;;19.21;35.16
35551;BME280;21655;46.056;13.616;2023-04-08T11:20:43;100445.44;;;19.34;34.99
35551;BME280;21655;46.056;13.616;2023-04-08T11:23:15;100439.66;;;19.47;33.84
35551;BME280;21655;46.056;13.616;2023-04-08T11:25:42;100437.81;;;18.99;34.56
35551;BME280;21655;46.056;13.616;2023-04-08T11:28:09;100433.97;;;19.36;34.92
35551;BME280;21655;46.056;13.616;2023-04-08T11:30:35;100441.31;;;19.19;35.08
35551;BME280;21655;46.056;13.616;2023-04-08T11:33:01;100440.63;;;18.57;35.58
35551;BME280;21655;46.056;13.616;2023-04-08T11:35:30;100435.97;;;18.69;36.67
35551;BME280;21655;46.056;13.616;2023-04-08T11:37:56;100439.19;;;18.72;35.60
35551;BME280;21655;46.056;13.616;2023-04-08T11:40:22;100432.06;;;18.70;35.98
35551;BME280;21655;46.056;13.616;2023-04-08T11:42:49;100435.09;;;18.93;35.57
35551;BME280;21655;46.056;13.616;2023-04-08T11:45:16;100438.53;;;18.95;33.94
35551;BME280;21655;46.056;13.616;2023-04-08T11:47:43;100426.50;;;19.05;35.41
35551;BME280;21655;46.056;13.616;2023-04-08T11:50:09;100430.44;;;18.38;33.65
35551;BME280;21655;46.056;13.616;2023-04-08T11:52:48;100433.63;;;18.10;36.03
35551;BME280;21655;46.056;13.616;2023-04-08T11:55:27;100429.06;;;17.85;38.37
35551;BME280;21655;46.056;13.616;2023-04-08T11:57:54;100432.47;;;17.56;37.79
35551;BME280;21655;46.056;13.616;2023-04-08T12:00:21;100430.53;;;17.56;38.33
35551;BME280;21655;46.056;13.616;2023-04-08T12:02:47;100442.63;;;17.57;38.85
35551;BME280;21655;46.056;13.616;2023-04-08T12:05:13;100443.50;;;17.44;39.42
35551;BME280;21655;46.056;13.616;2023-04-08T12:07:40;100441.72;;;17.06;39.08
35551;BME280;21655;46.056;13.616;2023-04-08T12:10:06;100443.19;;;17.08;40.10
35551;BME280;21655;46.056;13.616;2023-04-08T12:12:32;100444.66;;;17.24;40.13
35551;BME280;21655;46.056;13.616;2023-04-08T12:14:57;100443.00;;;16.97;38.77
35551;BME280;21655;46.056;13.616;2023-04-08T12:17:23;100434.44;;;16.79;37.04
35551;BME280;21655;46.056;13.616;2023-04-08T12:19:48;100443.72;;;16.67;39.61
35551;BME280;21655;46.056;13.616;2023-04-08T12:22:14;100434.69;;;16.65;37.28
35551;BME280;21655;46.056;13.616;2023-04-08T12:24:40;100434.88;;;16.76;40.19
35551;BME280;21655;46.056;13.616;2023-04-08T12:27:06;100435.06;;;16.81;37.30
35551;BME280;21655;46.056;13.616;2023-04-08T12:29:31;100441.13;;;16.65;37.18
35551;BME280;21655;46.056;13.616;2023-04-08T12:31:57;100430.81;;;16.46;36.32
35551;BME280;21655;46.056;13.616;2023-04-08T12:34:23;100437.25;;;16.34;36.10
35551;BME280;21655;46.056;13.616;2023-04-08T12:36:49;100439.84;;;16.16;36.88
35551;BME280;21655;46.056;13.616;2023-04-08T12:39:14;100437.03;;;16.22;36.85
35551;BME280;21655;46.056;13.616;2023-04-08T12:41:40;100433.38;;;16.15;36.75
35551;BME280;21655;46.056;13.616;2023-04-08T12:44:05;100430.78;;;16.14;36.10
35551;BME280;21655;46.056;13.616;2023-04-08T12:46:31;100439.59;;;16.11;36.06
35551;BME280;21655;46.056;13.616;2023-04-08T12:48:56;100435.09;;;16.16;36.94
35551;BME280;21655;46.056;13.616;2023-04-08T12:51:22;100431.00;;;15.99;37.10
35551;BME280;21655;46.056;13.616;2023-04-08T12:53:49;100431.22;;;16.24;36.98